A 511 Airport
RKSG : now visible

Airfield :











YOU CAN JOIN US ON...

 
LOGIN :

Register | Disclaimer

   EN    FR    IT 

 









Legend :    VFR   Marginal VFR   IFR   Intensive IFR   Very Intensive IFR
Visi :
Ceiling :
>= 8 km
>= 3000ft
5 to 8 km
1000 to 3000 ft
1500m to 5 km
500 to 1000 ft
800 to 1500m
200 to 500 ft
< 800m
< 200 ft
Symbols :   Thunderstorms  Fog  Heavy snow  Heavy precipitations  Wind > 20 kt






- Airport Elevation : 51 ft


RKSG - A 511

CURRENT METAR :
  • 261356Z 08010KT 10SM BKN170 07/M02 A3026 RMK AO2A SLP247 T00731023 $

EXPIRED METARs :
  • 261256Z 09010KT 10SM BKN180 07/M02 A3026 RMK AO2A SLP249 T00771022 $
  • 261156Z 09007KT 10SM BKN180 08/M03 A3029 RMK AO2A SLP256 T00831027 10116 21004 55003 $

TAF TAF RKSG
Valid from the 26 at 11:00 until the 27 at 17:00 UTC


261100Z 2611/2717 05009KT 8000 HZ SCT020 BKN150 QNH3020INS
BECMG 2622/2623 05006KT 4800 BR SCT020 BKN150 QNH3013INS
BECMG 2705/2706 04006KT 4800 -SHRA BR SCT005 BKN025 610253 620609 621505 QNH3015INS
TEMPO 2709/2715 3200 -RA BKN010 TX09/2706Z TN03/2621Z



MET'MAP, your aeronautical weather chart ! - Copyright ORBIFLY December 2007 - Disclaimer

ORBIFLY MET'MAP TEAM :

Programming & Development : Alexandra Zaïnal
Concept & original design : Baudouin d'Aumeries
Assistance for programming : Marc-Olivier Méhu
Technical & hardware support : Manuel Goepfert

Contact : metmap@orbifly.com




SOURCES & CREDITS :

   NOAA       Earth
Advisory